Time;durP1;ratioP1;P1;durP2;ratioP2;P2;SDS_P1;SDS_P2;PMS_P1;PMS_P2;Temp;Humidity;BMP_temperature;BMP_pressure;BME280_temperature;BME280_humidity;BME280_pressure;Samples;Min_cycle;Max_cycle;Signal;HPM_P1;HPM_P2
2022/01/20 14:23:22;;;;;;;;;;;;;;;;;;5008574;27;52908;-62
2022/01/20 14:25:49;;;;;;;2.88;0.65;;;;;;;;;;5005382;28;19936;-65
2022/01/20 14:30:38;;;;;;;;;;;;;;;;;;5045785;27;20368;-88
2022/01/20 14:33:08;;;;;;;5.15;1.00;;;;;;;;;;5002324;28;76810;-88
2022/01/20 14:35:35;;;;;;;8.23;1.20;;;;;;;;;;5014835;28;20072;-83
2022/01/20 14:38:22;;;;;;;11.90;1.83;;;;;;;;;;4997347;28;20038;-82
2022/01/20 14:40:52;;;;;;;8.13;1.90;;;;;;;;;;4996502;28;20049;-83
2022/01/20 14:43:20;;;;;;;9.73;1.15;;;;;;;;;;4990211;28;20093;-83
2022/01/20 14:45:51;;;;;;;6.05;1.23;;;;;;;;;;5001830;28;20038;-82
2022/01/20 14:48:19;;;;;;;4.57;1.17;;;;;;;;;;5006100;28;20046;-82
2022/01/20 14:50:49;;;;;;;6.63;1.08;;;;;;;;;;4993789;28;20048;-82
2022/01/20 14:53:17;;;;;;;8.27;1.73;;;;;;;;;;4996248;28;20045;-82
2022/01/20 14:55:46;;;;;;;6.88;0.85;;;;;;;;;;4995678;28;20054;-82
2022/01/20 14:58:13;;;;;;;3.92;1.10;;;;;;;;;;5013071;28;20080;-82
2022/01/20 15:00:42;;;;;;;6.30;1.27;;;;;;;;;;4995436;28;20048;-81
2022/01/20 15:03:11;;;;;;;3.58;0.80;;;;;;;;;;4997588;28;20047;-81
2022/01/20 15:05:39;;;;;;;11.93;1.60;;;;;;;;;;4992921;28;20050;-79
2022/01/20 15:08:07;;;;;;;4.75;1.23;;;;;;;;;;4992928;28;20056;-80
2022/01/20 15:10:35;;;;;;;2.65;1.00;;;;;;;;;;4989653;28;20135;-80
2022/01/20 15:13:03;;;;;;;9.95;1.10;;;;;;;;;;4993836;28;20038;-80
2022/01/20 15:15:33;;;;;;;11.38;1.45;;;;;;;;;;4992844;28;20129;-80
2022/01/20 15:18:01;;;;;;;6.20;1.30;;;;;;;;;;4998218;28;20057;-81
2022/01/20 15:20:49;;;;;;;5.32;1.00;;;;;;;;;;4993802;28;20054;-83
2022/01/20 15:23:17;;;;;;;2.08;1.05;;;;;;;;;;4991514;28;20053;-83
2022/01/20 15:25:45;;;;;;;3.75;1.00;;;;;;;;;;4993125;28;20057;-82
2022/01/20 15:28:14;;;;;;;6.50;0.77;;;;;;;;;;5010216;28;20436;-81
2022/01/20 15:30:42;;;;;;;11.93;0.75;;;;;;;;;;4997626;28;20057;-81
2022/01/20 15:33:09;;;;;;;5.00;0.80;;;;;;;;;;4998175;28;20145;-82
2022/01/20 15:35:38;;;;;;;4.60;0.90;;;;;;;;;;4997731;28;20069;-82
2022/01/20 15:38:05;;;;;;;5.65;1.00;;;;;;;;;;4985458;28;20062;-82
2022/01/20 15:40:33;;;;;;;4.20;1.05;;;;;;;;;;4986208;28;20045;-83
2022/01/20 15:43:01;;;;;;;6.22;1.33;;;;;;;;;;4981709;28;20053;-80
2022/01/20 15:45:29;;;;;;;5.28;0.90;;;;;;;;;;4983786;28;20034;-80
2022/01/20 15:47:57;;;;;;;6.28;1.30;;;;;;;;;;4981518;28;20121;-79
2022/01/20 15:50:25;;;;;;;2.65;1.20;;;;;;;;;;4980786;28;20112;-79
2022/01/20 15:52:53;;;;;;;4.93;1.05;;;;;;;;;;4978498;28;20487;-79
2022/01/20 15:55:21;;;;;;;6.45;1.00;;;;;;;;;;4979007;28;20038;-79
2022/01/20 15:57:49;;;;;;;3.72;0.93;;;;;;;;;;4976803;28;20051;-79
2022/01/20 16:00:19;;;;;;;8.82;1.40;;;;;;;;;;4980731;28;20049;-79
2022/01/20 16:02:47;;;;;;;6.40;1.45;;;;;;;;;;4974192;28;20066;-81
2022/01/20 16:05:15;;;;;;;9.98;1.35;;;;;;;;;;4977609;28;20570;-80
2022/01/20 16:07:43;;;;;;;3.03;0.77;;;;;;;;;;4977658;28;20049;-79
2022/01/20 16:10:11;;;;;;;11.15;1.65;;;;;;;;;;4985702;28;20045;-79
2022/01/20 16:12:39;;;;;;;3.30;1.17;;;;;;;;;;4984724;28;20046;-79
2022/01/20 16:15:08;;;;;;;8.73;1.20;;;;;;;;;;4986600;28;20053;-79
2022/01/20 16:17:36;;;;;;;3.20;1.08;;;;;;;;;;5001240;28;20057;-79
2022/01/20 16:20:04;;;;;;;3.30;0.88;;;;;;;;;;4977982;28;20042;-79
2022/01/20 16:22:31;;;;;;;6.32;1.10;;;;;;;;;;4963753;28;21574;-79
2022/01/20 16:24:59;;;;;;;5.15;1.27;;;;;;;;;;4986417;28;20064;-79
2022/01/20 16:27:27;;;;;;;5.80;1.05;;;;;;;;;;4985601;28;20034;-79
2022/01/20 16:29:55;;;;;;;2.38;0.75;;;;;;;;;;4981822;28;21077;-79
2022/01/20 16:32:23;;;;;;;2.78;1.02;;;;;;;;;;4984251;28;20051;-79
2022/01/20 16:34:51;;;;;;;6.40;1.13;;;;;;;;;;4983337;28;20054;-79
2022/01/20 16:37:21;;;;;;;8.10;1.13;;;;;;;;;;4987719;28;20042;-79
2022/01/20 16:39:49;;;;;;;3.33;0.85;;;;;;;;;;4969786;28;20073;-80
2022/01/20 16:42:17;;;;;;;3.78;0.85;;;;;;;;;;4988812;28;20050;-80
2022/01/20 16:44:45;;;;;;;3.08;0.98;;;;;;;;;;4996233;28;20046;-79
2022/01/20 16:47:13;;;;;;;6.60;0.90;;;;;;;;;;4989601;28;20051;-79
2022/01/20 16:49:41;;;;;;;4.70;0.95;;;;;;;;;;5004532;28;20045;-79
2022/01/20 16:52:09;;;;;;;3.20;0.82;;;;;;;;;;4984755;28;20049;-80
2022/01/20 16:54:37;;;;;;;9.98;1.38;;;;;;;;;;4989126;28;20093;-81
2022/01/20 16:57:05;;;;;;;3.00;1.02;;;;;;;;;;4985756;28;20041;-81
2022/01/20 16:59:33;;;;;;;4.47;0.85;;;;;;;;;;4983844;28;20435;-80
2022/01/20 17:02:02;;;;;;;9.27;1.10;;;;;;;;;;4939088;28;20059;-80
2022/01/20 17:04:29;;;;;;;3.35;0.90;;;;;;;;;;5002879;28;20054;-80
2022/01/20 17:06:57;;;;;;;7.75;0.93;;;;;;;;;;4996261;28;20838;-80
2022/01/20 17:09:27;;;;;;;5.57;0.98;;;;;;;;;;4992303;28;20046;-79
2022/01/20 17:11:55;;;;;;;5.45;1.23;;;;;;;;;;4996021;28;20307;-84
2022/01/20 17:14:25;;;;;;;3.08;1.00;;;;;;;;;;4994539;28;20038;-82
2022/01/20 17:16:53;;;;;;;4.95;1.10;;;;;;;;;;4990328;28;20065;-82
2022/01/20 17:19:21;;;;;;;8.23;2.10;;;;;;;;;;4994239;28;20034;-82
2022/01/20 17:21:51;;;;;;;4.28;0.88;;;;;;;;;;4995550;28;20038;-82
2022/01/20 17:24:19;;;;;;;6.60;1.00;;;;;;;;;;4988924;28;20048;-81
2022/01/20 17:26:47;;;;;;;7.15;1.25;;;;;;;;;;4994806;28;20046;-81
2022/01/20 17:29:15;;;;;;;3.75;1.13;;;;;;;;;;4993119;28;20145;-82
2022/01/20 17:31:46;;;;;;;6.03;1.20;;;;;;;;;;4991758;28;21072;-81
2022/01/20 17:34:15;;;;;;;6.25;0.95;;;;;;;;;;4989349;28;20057;-81
2022/01/20 17:36:45;;;;;;;5.93;1.05;;;;;;;;;;4994644;28;20038;-79
2022/01/20 17:39:13;;;;;;;9.52;1.42;;;;;;;;;;4994367;28;20046;-80
2022/01/20 17:41:41;;;;;;;2.58;0.95;;;;;;;;;;5009262;28;20157;-80
2022/01/20 17:44:12;;;;;;;4.88;1.20;;;;;;;;;;4994705;28;20041;-79
2022/01/20 17:46:39;;;;;;;4.25;0.73;;;;;;;;;;4997083;28;20045;-81
2022/01/20 17:49:10;;;;;;;8.00;1.48;;;;;;;;;;4990134;28;20060;-81
2022/01/20 17:51:37;;;;;;;5.18;1.02;;;;;;;;;;4992284;28;20053;-80
2022/01/20 17:54:12;;;;;;;2.58;0.80;;;;;;;;;;4994648;28;20124;-81
2022/01/20 17:56:40;;;;;;;5.50;1.45;;;;;;;;;;4995876;28;20089;-82
2022/01/20 17:59:07;;;;;;;3.10;1.05;;;;;;;;;;4996392;28;20522;-80
2022/01/20 18:01:35;;;;;;;3.67;1.23;;;;;;;;;;4993491;28;20054;-82
2022/01/20 18:04:05;;;;;;;1.38;0.73;;;;;;;;;;4979178;28;20084;-83
2022/01/20 18:06:33;;;;;;;8.80;1.30;;;;;;;;;;4992791;28;20128;-82
2022/01/20 18:09:01;;;;;;;4.32;1.10;;;;;;;;;;4992470;28;20046;-82
2022/01/20 18:11:29;;;;;;;9.45;2.08;;;;;;;;;;4998049;28;20487;-87
2022/01/20 18:14:03;;;;;;;7.25;1.30;;;;;;;;;;4970611;28;20077;-88
2022/01/20 18:16:43;;;;;;;3.80;1.02;;;;;;;;;;4981153;28;20058;-85
2022/01/20 18:19:12;;;;;;;4.72;1.13;;;;;;;;;;4975973;28;20073;-86
2022/01/20 18:21:39;;;;;;;4.25;1.10;;;;;;;;;;4991159;28;20050;-87
2022/01/20 18:24:09;;;;;;;4.25;0.73;;;;;;;;;;4987756;28;20126;-86
2022/01/20 18:26:42;;;;;;;2.90;1.10;;;;;;;;;;4986972;28;20051;-86
2022/01/20 18:29:10;;;;;;;4.65;1.08;;;;;;;;;;5003236;28;20041;-87
2022/01/20 18:31:37;;;;;;;3.60;1.40;;;;;;;;;;5001108;28;20088;-86
2022/01/20 18:34:05;;;;;;;4.72;1.20;;;;;;;;;;5002539;28;21102;-86
2022/01/20 18:36:33;;;;;;;3.47;1.33;;;;;;;;;;5008756;28;20053;-87
2022/01/20 18:39:02;;;;;;;3.05;1.10;;;;;;;;;;4989435;28;20136;-86
2022/01/20 18:41:29;;;;;;;2.10;1.08;;;;;;;;;;5005117;28;20100;-87
2022/01/20 18:43:57;;;;;;;3.35;1.05;;;;;;;;;;4997501;28;20049;-86
2022/01/20 18:46:25;;;;;;;2.05;0.85;;;;;;;;;;5002279;28;20042;-86
2022/01/20 18:48:53;;;;;;;10.25;1.27;;;;;;;;;;5002913;28;20045;-87
2022/01/20 18:51:21;;;;;;;4.97;1.38;;;;;;;;;;5001983;28;20416;-86
2022/01/20 18:53:50;;;;;;;4.20;1.00;;;;;;;;;;4983423;28;20112;-87
2022/01/20 18:56:20;;;;;;;4.60;1.08;;;;;;;;;;4997147;28;20068;-88
2022/01/20 18:58:49;;;;;;;3.03;1.02;;;;;;;;;;4979079;28;20046;-88
2022/01/20 19:01:20;;;;;;;4.80;1.25;;;;;;;;;;4998729;28;20042;-88
2022/01/20 19:03:48;;;;;;;2.95;1.00;;;;;;;;;;4996150;28;20038;-87
2022/01/20 19:06:16;;;;;;;1.90;0.95;;;;;;;;;;5001205;28;20050;-86
2022/01/20 19:08:43;;;;;;;6.00;1.50;;;;;;;;;;4984034;28;20042;-88
2022/01/20 19:11:12;;;;;;;4.95;1.10;;;;;;;;;;4978153;28;20453;-88
2022/01/20 19:13:42;;;;;;;6.10;1.00;;;;;;;;;;5001914;28;20128;-89
2022/01/20 19:16:09;;;;;;;3.45;1.33;;;;;;;;;;5000890;28;20126;-89
2022/01/20 19:18:37;;;;;;;5.32;1.02;;;;;;;;;;5003728;28;20062;-89
2022/01/20 19:21:05;;;;;;;5.20;1.20;;;;;;;;;;5010545;28;20039;-89
2022/01/20 19:23:33;;;;;;;4.50;0.90;;;;;;;;;;5005935;28;20729;-89
2022/01/20 19:26:05;;;;;;;2.55;1.27;;;;;;;;;;5011990;28;20053;-89
2022/01/20 19:28:35;;;;;;;5.55;1.30;;;;;;;;;;5014423;28;20101;-89
2022/01/20 19:31:06;;;;;;;2.35;0.98;;;;;;;;;;5006079;28;20144;-89
2022/01/20 19:33:38;;;;;;;5.65;1.05;;;;;;;;;;5029809;28;20042;-89
2022/01/20 19:36:05;;;;;;;3.97;1.15;;;;;;;;;;5015963;28;20049;-88
2022/01/20 19:38:33;;;;;;;9.75;1.30;;;;;;;;;;5008593;28;21505;-89
2022/01/20 19:41:01;;;;;;;6.10;1.08;;;;;;;;;;5007125;28;20091;-88
2022/01/20 19:43:29;;;;;;;8.02;1.17;;;;;;;;;;5018191;28;20046;-89
2022/01/20 19:46:00;;;;;;;2.85;0.90;;;;;;;;;;4991056;28;20121;-89
2022/01/20 19:48:33;;;;;;;3.90;1.10;;;;;;;;;;5011187;28;20056;-89
2022/01/20 19:51:04;;;;;;;3.03;0.80;;;;;;;;;;5004070;28;20751;-89
2022/01/20 19:53:33;;;;;;;4.40;1.67;;;;;;;;;;5009683;28;20077;-89
2022/01/20 19:56:03;;;;;;;5.25;1.45;;;;;;;;;;5010960;28;20148;-90
2022/01/20 19:58:31;;;;;;;5.43;1.77;;;;;;;;;;5024517;28;20136;-89
2022/01/20 20:01:01;;;;;;;4.35;1.35;;;;;;;;;;5008954;28;20113;-89
2022/01/20 20:03:34;;;;;;;4.65;1.42;;;;;;;;;;5019644;28;20064;-90
2022/01/20 20:06:03;;;;;;;4.22;1.20;;;;;;;;;;5022189;28;20049;-88
2022/01/20 20:08:37;;;;;;;5.55;1.55;;;;;;;;;;4979080;28;20050;-90
2022/01/20 20:11:05;;;;;;;5.20;0.93;;;;;;;;;;5014844;28;20049;-88
2022/01/20 20:13:33;;;;;;;7.05;1.50;;;;;;;;;;5003268;28;20136;-88
2022/01/20 20:16:03;;;;;;;6.55;1.52;;;;;;;;;;5004130;28;20092;-88
2022/01/20 20:18:31;;;;;;;5.25;1.70;;;;;;;;;;4999569;28;20046;-88
2022/01/20 20:20:59;;;;;;;6.13;1.23;;;;;;;;;;5002142;28;20046;-88
2022/01/20 20:23:27;;;;;;;3.58;1.23;;;;;;;;;;4997120;28;21176;-88
2022/01/20 20:25:55;;;;;;;5.38;1.08;;;;;;;;;;4996754;28;20041;-88
2022/01/20 20:28:23;;;;;;;3.28;1.08;;;;;;;;;;4977276;28;20042;-88
2022/01/20 20:30:51;;;;;;;6.45;1.40;;;;;;;;;;5008257;28;20038;-88
2022/01/20 20:33:19;;;;;;;2.78;0.93;;;;;;;;;;5005590;28;20046;-87
2022/01/20 20:35:50;;;;;;;3.58;1.33;;;;;;;;;;5001190;28;20042;-90
2022/01/20 20:38:28;;;;;;;4.55;1.17;;;;;;;;;;4975555;28;21034;-89
2022/01/20 20:40:58;;;;;;;12.48;1.48;;;;;;;;;;5004331;28;20179;-89
2022/01/20 20:43:25;;;;;;;5.10;1.00;;;;;;;;;;5008119;28;20357;-89
2022/01/20 20:45:55;;;;;;;3.70;1.23;;;;;;;;;;4985721;28;20045;-89
2022/01/20 20:48:24;;;;;;;5.15;1.38;;;;;;;;;;5002137;28;20038;-89
2022/01/20 20:51:03;;;;;;;2.78;1.17;;;;;;;;;;4968392;28;20046;-86
2022/01/20 20:53:31;;;;;;;1.67;0.77;;;;;;;;;;4984941;28;20778;-87
2022/01/20 20:55:59;;;;;;;3.53;1.27;;;;;;;;;;4988198;28;20052;-87
2022/01/20 20:58:30;;;;;;;5.07;1.38;;;;;;;;;;5005132;28;20048;-88
2022/01/20 21:01:02;;;;;;;5.22;1.20;;;;;;;;;;5000072;28;20034;-87
2022/01/20 21:03:33;;;;;;;3.90;1.30;;;;;;;;;;5004378;28;20457;-89
2022/01/20 21:06:01;;;;;;;3.63;1.08;;;;;;;;;;5002627;28;20449;-89
2022/01/20 21:08:29;;;;;;;9.90;1.88;;;;;;;;;;5004025;28;20065;-86
2022/01/20 21:11:05;;;;;;;3.22;1.50;;;;;;;;;;4972697;28;20137;-87
2022/01/20 21:13:33;;;;;;;4.65;1.17;;;;;;;;;;4988821;28;20042;-88
2022/01/20 21:16:05;;;;;;;5.85;1.60;;;;;;;;;;4982687;28;20113;-88
2022/01/20 21:18:35;;;;;;;5.20;1.52;;;;;;;;;;5014237;28;20045;-90
2022/01/20 21:21:07;;;;;;;5.28;1.20;;;;;;;;;;4997060;28;20084;-90
2022/01/20 21:23:37;;;;;;;8.25;1.58;;;;;;;;;;4995952;28;20135;-88
2022/01/20 21:26:06;;;;;;;5.90;1.35;;;;;;;;;;4999880;28;20046;-88
2022/01/20 21:28:33;;;;;;;9.52;1.73;;;;;;;;;;4994229;28;20476;-89
2022/01/20 21:31:01;;;;;;;5.05;1.20;;;;;;;;;;4996535;28;20125;-89
2022/01/20 21:33:36;;;;;;;7.90;1.30;;;;;;;;;;4996970;28;20046;-90
2022/01/20 21:36:07;;;;;;;4.57;1.50;;;;;;;;;;4984870;28;20041;-88
2022/01/20 21:38:44;;;;;;;8.25;1.40;;;;;;;;;;4985488;28;20561;-89
2022/01/20 21:41:15;;;;;;;2.72;1.27;;;;;;;;;;5003170;28;20050;-89
2022/01/20 21:43:43;;;;;;;6.40;1.70;;;;;;;;;;5001257;28;20041;-89
2022/01/20 21:46:12;;;;;;;2.97;1.25;;;;;;;;;;5001614;28;21198;-89
2022/01/20 21:48:39;;;;;;;3.38;1.10;;;;;;;;;;4992856;28;20168;-88
2022/01/20 21:51:09;;;;;;;2.83;1.23;;;;;;;;;;4996034;28;20038;-88
2022/01/20 21:53:38;;;;;;;7.22;1.42;;;;;;;;;;4998551;28;20057;-88
2022/01/20 21:56:06;;;;;;;6.70;2.13;;;;;;;;;;4997733;28;20057;-89
2022/01/20 21:58:34;;;;;;;5.75;1.25;;;;;;;;;;4995250;28;20491;-89
2022/01/20 22:01:02;;;;;;;4.07;1.60;;;;;;;;;;4999436;28;20038;-88
2022/01/20 22:03:32;;;;;;;16.17;1.65;;;;;;;;;;4997187;28;20781;-89
2022/01/20 22:06:00;;;;;;;12.80;1.85;;;;;;;;;;4992302;28;20057;-87
2022/01/20 22:08:27;;;;;;;3.50;1.10;;;;;;;;;;5000592;28;20147;-90
2022/01/20 22:10:55;;;;;;;5.95;1.42;;;;;;;;;;5001656;28;20547;-88
2022/01/20 22:13:29;;;;;;;5.78;1.70;;;;;;;;;;5005129;28;20071;-92
2022/01/20 22:15:58;;;;;;;4.15;1.00;;;;;;;;;;4972279;28;20077;-92
2022/01/20 22:18:26;;;;;;;3.47;1.35;;;;;;;;;;5002400;28;20054;-92
2022/01/20 22:21:01;;;;;;;4.88;1.33;;;;;;;;;;4999575;28;20091;-92
2022/01/20 22:23:31;;;;;;;2.97;1.63;;;;;;;;;;4997884;28;20066;-91
2022/01/20 22:26:02;;;;;;;7.82;1.20;;;;;;;;;;5003118;28;21009;-91
2022/01/20 22:29:32;;;;;;;4.30;1.35;;;;;;;;;;5013931;28;20038;-91
2022/01/20 22:32:01;;;;;;;7.60;1.40;;;;;;;;;;5009940;28;20041;-92
2022/01/20 22:34:29;;;;;;;4.25;1.35;;;;;;;;;;5012770;28;20038;-91
2022/01/20 22:36:57;;;;;;;5.50;1.35;;;;;;;;;;4996329;28;20110;-91
2022/01/20 22:39:25;;;;;;;3.70;1.00;;;;;;;;;;5014537;28;20018;-91
2022/01/20 22:41:53;;;;;;;4.78;1.00;;;;;;;;;;5026618;28;20026;-91
2022/01/20 22:44:21;;;;;;;5.65;1.73;;;;;;;;;;4991462;28;20077;-92
2022/01/20 22:46:49;;;;;;;2.78;1.20;;;;;;;;;;5003205;28;20690;-92
2022/01/20 22:49:18;;;;;;;5.25;1.10;;;;;;;;;;5007822;28;20093;-92
2022/01/20 22:51:45;;;;;;;3.28;1.55;;;;;;;;;;5003806;28;20030;-91
2022/01/20 22:54:13;;;;;;;4.78;1.30;;;;;;;;;;5006041;28;20119;-91
2022/01/20 22:56:41;;;;;;;7.65;1.52;;;;;;;;;;4973638;28;20050;-92
2022/01/20 22:59:11;;;;;;;4.88;1.15;;;;;;;;;;5003900;28;20042;-92
2022/01/20 23:01:40;;;;;;;4.10;1.27;;;;;;;;;;5008513;28;20034;-93
2022/01/20 23:04:12;;;;;;;7.25;1.30;;;;;;;;;;4986235;28;20053;-93
2022/01/20 23:06:43;;;;;;;3.03;1.10;;;;;;;;;;4993010;28;20054;-91
2022/01/20 23:09:19;;;;;;;6.43;1.02;;;;;;;;;;4995461;28;20054;-92
2022/01/20 23:11:53;;;;;;;4.18;1.23;;;;;;;;;;4991653;28;20049;-92
2022/01/20 23:14:25;;;;;;;8.07;1.95;;;;;;;;;;4981421;28;20061;-92
2022/01/20 23:17:06;;;;;;;5.38;1.40;;;;;;;;;;4992038;28;20046;-92
2022/01/20 23:22:16;;;;;;;4.20;1.17;;;;;;;;;;4991849;28;20066;-90
2022/01/20 23:24:45;;;;;;;6.75;1.10;;;;;;;;;;5010061;28;20108;-90
2022/01/20 23:27:15;;;;;;;2.35;1.10;;;;;;;;;;5008651;28;20038;-90
2022/01/20 23:29:43;;;;;;;5.38;1.25;;;;;;;;;;5001977;28;20046;-90
2022/01/20 23:32:11;;;;;;;4.97;1.10;;;;;;;;;;5004678;28;20041;-90
2022/01/20 23:34:39;;;;;;;5.85;1.15;;;;;;;;;;5009340;28;20037;-90
2022/01/20 23:37:07;;;;;;;3.03;1.00;;;;;;;;;;5008921;28;20038;-90
2022/01/20 23:39:36;;;;;;;3.40;1.15;;;;;;;;;;5001427;28;20472;-91
2022/01/20 23:42:15;;;;;;;2.90;0.80;;;;;;;;;;4988407;28;20043;-90
2022/01/20 23:45:01;;;;;;;3.78;1.00;;;;;;;;;;5002263;28;20050;-92
2022/01/20 23:50:15;;;;;;;2.65;1.02;;;;;;;;;;5017287;28;20412;-91
2022/01/20 23:52:43;;;;;;;2.17;1.02;;;;;;;;;;4984892;28;20060;-91
2022/01/20 23:55:11;;;;;;;3.88;1.40;;;;;;;;;;4989657;28;20049;-92
2022/01/20 23:57:39;;;;;;;3.70;1.20;;;;;;;;;;4988322;28;20092;-92
